Time,TemperatureF,DewpointF,PressureIn,WindDirection,WindDirectionDegrees,WindSpeedMPH,WindSpeedGustMPH,Humidity,HourlyPrecipIn,Conditions,Clouds,dailyrainin,SolarRadiationWatts/m^2,SoftwareType,DateUTC
2013-10-30 00:00:00,42.4,22.6,29.59,North,-999,-999.0,-999.0,45,0.00,,,-99.99,0.0,Linux-Irox,2013-10-30 07:00:00,
2013-10-30 00:10:00,42.3,22.1,29.59,North,-999,-999.0,-999.0,44,0.00,,,-99.99,0.0,Linux-Irox,2013-10-30 07:10:00,
2013-10-30 00:20:00,41.9,21.4,29.61,North,-999,-999.0,-999.0,43,0.00,,,-99.99,0.0,Linux-Irox,2013-10-30 07:20:00,
2013-10-30 00:30:00,41.9,22.1,29.61,North,-999,-999.0,-999.0,45,0.00,,,-99.99,0.0,Linux-Irox,2013-10-30 07:30:00,
2013-10-30 00:40:00,41.7,21.9,29.60,North,-999,-999.0,-999.0,45,0.00,,,-99.99,0.0,Linux-Irox,2013-10-30 07:40:00,
2013-10-30 00:50:00,41.7,21.9,29.60,North,-999,-999.0,-999.0,45,0.00,,,-99.99,0.0,Linux-Irox,2013-10-30 07:50:00,
2013-10-30 01:00:00,41.7,22.3,29.61,North,-999,-999.0,-999.0,46,0.00,,,-99.99,0.0,Linux-Irox,2013-10-30 08:00:00,
2013-10-30 01:10:00,41.4,21.6,29.61,North,-999,-999.0,-999.0,45,0.00,,,-99.99,0.0,Linux-Irox,2013-10-30 08:10:00,
2013-10-30 01:20:00,41.2,21.4,29.61,North,-999,-999.0,-999.0,45,0.00,,,-99.99,0.0,Linux-Irox,2013-10-30 08:20:00,
2013-10-30 01:30:00,41.0,21.2,29.61,North,-999,-999.0,-999.0,45,0.00,,,-99.99,0.0,Linux-Irox,2013-10-30 08:30:00,
2013-10-30 01:40:00,40.8,21.4,29.61,North,-999,-999.0,-999.0,46,0.00,,,-99.99,0.0,Linux-Irox,2013-10-30 08:40:00,
2013-10-30 01:50:00,40.6,20.8,29.61,North,-999,-999.0,-999.0,45,0.00,,,-99.99,0.0,Linux-Irox,2013-10-30 08:50:00,
2013-10-30 02:00:00,40.5,20.7,29.61,North,-999,-999.0,-999.0,45,0.00,,,-99.99,0.0,Linux-Irox,2013-10-30 09:00:00,
2013-10-30 02:10:00,40.3,20.8,29.61,North,-999,-999.0,-999.0,46,0.00,,,-99.99,0.0,Linux-Irox,2013-10-30 09:10:00,
2013-10-30 02:20:00,40.1,20.3,29.61,North,-999,-999.0,-999.0,45,0.00,,,-99.99,0.0,Linux-Irox,2013-10-30 09:20:00,
2013-10-30 02:30:00,40.1,20.3,29.61,North,-999,-999.0,-999.0,45,0.00,,,-99.99,0.0,Linux-Irox,2013-10-30 09:30:00,
2013-10-30 02:40:00,39.9,20.1,29.62,North,-999,-999.0,-999.0,45,0.00,,,-99.99,0.0,Linux-Irox,2013-10-30 09:40:00,
2013-10-30 02:50:00,39.9,20.5,29.62,North,-999,-999.0,-999.0,46,0.00,,,-99.99,0.0,Linux-Irox,2013-10-30 09:50:00,
2013-10-30 03:00:00,39.7,19.9,29.62,North,-999,-999.0,-999.0,45,0.00,,,-99.99,0.0,Linux-Irox,2013-10-30 10:00:00,
2013-10-30 03:10:00,39.7,19.9,29.62,North,-999,-999.0,-999.0,45,0.00,,,-99.99,0.0,Linux-Irox,2013-10-30 10:10:00,
2013-10-30 03:20:00,39.6,19.4,29.62,North,-999,-999.0,-999.0,44,0.00,,,-99.99,0.0,Linux-Irox,2013-10-30 10:20:00,
2013-10-30 03:30:00,39.9,20.1,29.62,North,-999,-999.0,-999.0,45,0.00,,,-99.99,0.0,Linux-Irox,2013-10-30 10:30:00,
2013-10-30 03:40:00,39.6,19.8,29.62,North,-999,-999.0,-999.0,45,0.00,,,-99.99,0.0,Linux-Irox,2013-10-30 10:40:00,
2013-10-30 03:50:00,39.6,19.8,29.62,North,-999,-999.0,-999.0,45,0.00,,,-99.99,0.0,Linux-Irox,2013-10-30 10:50:00,
2013-10-30 04:00:00,39.6,19.8,29.62,North,-999,-999.0,-999.0,45,0.00,,,-99.99,0.0,Linux-Irox,2013-10-30 11:00:00,
2013-10-30 04:10:00,39.6,19.8,29.62,North,-999,-999.0,-999.0,45,0.00,,,-99.99,0.0,Linux-Irox,2013-10-30 11:10:00,
2013-10-30 04:20:00,39.4,19.6,29.62,North,-999,-999.0,-999.0,45,0.00,,,-99.99,0.0,Linux-Irox,2013-10-30 11:20:00,
2013-10-30 04:30:00,39.4,19.6,29.62,North,-999,-999.0,-999.0,45,0.00,,,-99.99,0.0,Linux-Irox,2013-10-30 11:30:00,
2013-10-30 04:40:00,39.6,19.8,29.62,North,-999,-999.0,-999.0,45,0.00,,,-99.99,0.0,Linux-Irox,2013-10-30 11:40:00,
2013-10-30 04:50:00,39.7,19.6,29.62,North,-999,-999.0,-999.0,44,0.00,,,-99.99,0.0,Linux-Irox,2013-10-30 11:50:00,
2013-10-30 05:00:00,39.6,19.0,29.63,North,-999,-999.0,-999.0,43,0.00,,,-99.99,0.0,Linux-Irox,2013-10-30 12:00:00,
2013-10-30 05:10:00,39.6,19.0,29.63,North,-999,-999.0,-999.0,43,0.00,,,-99.99,0.0,Linux-Irox,2013-10-30 12:10:00,
2013-10-30 05:20:00,39.4,18.5,29.63,North,-999,-999.0,-999.0,42,0.00,,,-99.99,0.0,Linux-Irox,2013-10-30 12:20:00,
2013-10-30 05:30:00,39.4,18.5,29.63,North,-999,-999.0,-999.0,42,0.00,,,-99.99,0.0,Linux-Irox,2013-10-30 12:30:00,
2013-10-30 05:40:00,39.4,18.5,29.64,North,-999,-999.0,-999.0,42,0.00,,,-99.99,0.0,Linux-Irox,2013-10-30 12:40:00,
2013-10-30 05:50:00,39.4,18.1,29.64,North,-999,-999.0,-999.0,41,0.00,,,-99.99,0.0,Linux-Irox,2013-10-30 12:50:00,
2013-10-30 06:00:00,39.4,18.5,29.65,North,-999,-999.0,-999.0,42,0.00,,,-99.99,0.0,Linux-Irox,2013-10-30 13:00:00,
2013-10-30 06:10:00,38.8,17.2,29.65,North,-999,-999.0,-999.0,40,0.00,,,-99.99,0.0,Linux-Irox,2013-10-30 13:10:00,
2013-10-30 06:16:00,39.0,18.1,29.65,North,-999,-999.0,-999.0,42,0.00,,,-99.99,0.0,Linux-Irox,2013-10-30 13:16:00,
2013-10-30 06:20:00,39.0,17.8,29.65,North,-999,-999.0,-999.0,41,0.00,,,-99.99,0.0,Linux-Irox,2013-10-30 13:20:00,
2013-10-30 06:30:00,38.8,18.0,29.65,North,-999,-999.0,-999.0,42,0.00,,,-99.99,0.0,Linux-Irox,2013-10-30 13:30:00,
2013-10-30 06:31:00,38.8,18.0,29.65,North,-999,-999.0,-999.0,42,0.00,,,-99.99,0.0,Linux-Irox,2013-10-30 13:31:00,
2013-10-30 06:40:00,38.8,17.6,29.64,North,-999,-999.0,-999.0,41,0.00,,,-99.99,0.0,Linux-Irox,2013-10-30 13:40:00,
2013-10-30 06:46:00,38.8,17.2,29.64,North,-999,-999.0,-999.0,40,0.00,,,-99.99,0.0,Linux-Irox,2013-10-30 13:46:00,
2013-10-30 06:50:00,38.7,17.1,29.64,North,-999,-999.0,-999.0,40,0.00,,,-99.99,0.0,Linux-Irox,2013-10-30 13:50:00,
2013-10-30 07:00:00,38.8,17.2,29.65,North,-999,-999.0,-999.0,40,0.00,,,-99.99,0.0,Linux-Irox,2013-10-30 14:00:00,
2013-10-30 07:01:00,38.8,17.2,29.65,North,-999,-999.0,-999.0,40,0.00,,,-99.99,0.0,Linux-Irox,2013-10-30 14:01:00,
2013-10-30 07:10:00,39.0,17.8,29.65,North,-999,-999.0,-999.0,41,0.00,,,-99.99,0.0,Linux-Irox,2013-10-30 14:10:00,
2013-10-30 07:16:00,39.4,17.8,29.65,North,-999,-999.0,-999.0,40,0.00,,,-99.99,0.0,Linux-Irox,2013-10-30 14:16:00,
2013-10-30 07:20:00,39.6,18.0,29.65,North,-999,-999.0,-999.0,40,0.00,,,-99.99,0.0,Linux-Irox,2013-10-30 14:20:00,
2013-10-30 07:30:00,39.7,16.7,29.65,North,-999,-999.0,-999.0,36,0.00,,,-99.99,0.0,Linux-Irox,2013-10-30 14:30:00,
2013-10-30 07:31:00,39.7,16.7,29.65,North,-999,-999.0,-999.0,36,0.00,,,-99.99,0.0,Linux-Irox,2013-10-30 14:31:00,
2013-10-30 07:40:00,39.9,16.5,29.66,North,-999,-999.0,-999.0,35,0.00,,,-99.99,0.0,Linux-Irox,2013-10-30 14:40:00,
2013-10-30 07:46:00,39.7,16.0,29.66,North,-999,-999.0,-999.0,34,0.00,,,-99.99,0.0,Linux-Irox,2013-10-30 14:46:00,
2013-10-30 07:50:00,39.9,16.2,29.66,North,-999,-999.0,-999.0,34,0.00,,,-99.99,0.0,Linux-Irox,2013-10-30 14:50:00,
2013-10-30 08:00:00,40.8,17.1,29.66,North,-999,-999.0,-999.0,34,0.00,,,-99.99,0.0,Linux-Irox,2013-10-30 15:00:00,
2013-10-30 08:01:00,40.8,17.1,29.66,North,-999,-999.0,-999.0,34,0.00,,,-99.99,0.0,Linux-Irox,2013-10-30 15:01:00,
2013-10-30 08:09:00,40.8,17.1,29.66,North,-999,-999.0,-999.0,34,0.00,,,-99.99,0.0,Linux-Irox,2013-10-30 15:09:00,
2013-10-30 08:10:00,42.3,17.1,29.66,North,-999,-999.0,-999.0,30,0.00,,,-99.99,0.0,Linux-Irox,2013-10-30 15:10:00,
2013-10-30 08:16:00,42.8,18.7,29.68,North,-999,-999.0,-999.0,33,0.00,,,-99.99,0.0,Linux-Irox,2013-10-30 15:16:00,
2013-10-30 08:20:00,43.3,18.9,29.68,North,-999,-999.0,-999.0,32,0.00,,,-99.99,0.0,Linux-Irox,2013-10-30 15:20:00,
2013-10-30 08:30:00,44.1,19.2,29.68,North,-999,-999.0,-999.0,31,0.00,,,-99.99,0.0,Linux-Irox,2013-10-30 15:30:00,
2013-10-30 08:31:00,44.1,19.2,29.68,North,-999,-999.0,-999.0,31,0.00,,,-99.99,0.0,Linux-Irox,2013-10-30 15:31:00,
2013-10-30 08:40:00,45.0,17.2,29.68,North,-999,-999.0,-999.0,23,0.00,,,-99.99,0.0,Linux-Irox,2013-10-30 15:40:00,
2013-10-30 08:46:00,45.5,17.8,29.68,North,-999,-999.0,-999.0,23,0.00,,,-99.99,0.0,Linux-Irox,2013-10-30 15:46:00,
2013-10-30 08:50:00,45.9,17.8,29.68,North,-999,-999.0,-999.0,22,0.00,,,-99.99,0.0,Linux-Irox,2013-10-30 15:50:00,
2013-10-30 09:00:00,46.9,17.8,29.68,North,-999,-999.0,-999.0,19,0.00,,,-99.99,0.0,Linux-Irox,2013-10-30 16:00:00,
2013-10-30 09:01:00,46.9,17.8,29.68,North,-999,-999.0,-999.0,19,0.00,,,-99.99,0.0,Linux-Irox,2013-10-30 16:01:00,
2013-10-30 09:10:00,48.2,17.2,29.68,North,-999,-999.0,-999.0,14,0.00,,,-99.99,0.0,Linux-Irox,2013-10-30 16:10:00,
2013-10-30 09:16:00,48.6,16.9,29.69,North,-999,-999.0,-999.0,12,0.00,,,-99.99,0.0,Linux-Irox,2013-10-30 16:16:00,
2013-10-30 09:20:00,48.9,17.2,29.69,North,-999,-999.0,-999.0,12,0.00,,,-99.99,0.0,Linux-Irox,2013-10-30 16:20:00,
2013-10-30 09:30:00,50.9,18.9,29.69,North,-999,-999.0,-999.0,11,0.00,,,-99.99,0.0,Linux-Irox,2013-10-30 16:30:00,
2013-10-30 09:31:00,50.9,18.9,29.69,North,-999,-999.0,-999.0,11,0.00,,,-99.99,0.0,Linux-Irox,2013-10-30 16:31:00,
2013-10-30 09:40:00,52.3,19.2,29.70,North,-999,-999.0,-999.0,8,0.00,,,-99.99,0.0,Linux-Irox,2013-10-30 16:40:00,
2013-10-30 09:46:00,53.4,19.2,29.70,North,-999,-999.0,-999.0,5,0.00,,,-99.99,0.0,Linux-Irox,2013-10-30 16:46:00,
2013-10-30 09:50:00,54.3,20.1,29.70,North,-999,-999.0,-999.0,5,0.00,,,-99.99,0.0,Linux-Irox,2013-10-30 16:50:00,
2013-10-30 10:00:00,55.0,20.8,29.70,North,-999,-999.0,-999.0,5,0.00,,,-99.99,0.0,Linux-Irox,2013-10-30 17:00:00,
2013-10-30 10:01:00,55.0,20.8,29.70,North,-999,-999.0,-999.0,5,0.00,,,-99.99,0.0,Linux-Irox,2013-10-30 17:01:00,
2013-10-30 10:10:00,55.9,21.7,29.70,North,-999,-999.0,-999.0,5,0.00,,,-99.99,0.0,Linux-Irox,2013-10-30 17:10:00,
2013-10-30 10:16:00,56.3,22.1,29.70,North,-999,-999.0,-999.0,5,0.00,,,-99.99,0.0,Linux-Irox,2013-10-30 17:16:00,
2013-10-30 10:20:00,57.0,22.8,29.70,North,-999,-999.0,-999.0,5,0.00,,,-99.99,0.0,Linux-Irox,2013-10-30 17:20:00,
2013-10-30 10:30:00,56.5,22.3,29.70,North,-999,-999.0,-999.0,5,0.00,,,-99.99,0.0,Linux-Irox,2013-10-30 17:30:00,
2013-10-30 10:31:00,56.5,22.3,29.70,North,-999,-999.0,-999.0,5,0.00,,,-99.99,0.0,Linux-Irox,2013-10-30 17:31:00,
2013-10-30 10:40:00,58.8,24.6,29.70,North,-999,-999.0,-999.0,5,0.00,,,-99.99,0.0,Linux-Irox,2013-10-30 17:40:00,
2013-10-30 10:46:00,58.5,24.3,29.70,North,-999,-999.0,-999.0,5,0.00,,,-99.99,0.0,Linux-Irox,2013-10-30 17:46:00,
2013-10-30 10:50:00,59.0,24.8,29.70,North,-999,-999.0,-999.0,5,0.00,,,-99.99,0.0,Linux-Irox,2013-10-30 17:50:00,
2013-10-30 11:00:00,60.3,26.1,29.71,North,-999,-999.0,-999.0,5,0.00,,,-99.99,0.0,Linux-Irox,2013-10-30 18:00:00,
2013-10-30 11:01:00,60.3,26.1,29.71,North,-999,-999.0,-999.0,5,0.00,,,-99.99,0.0,Linux-Irox,2013-10-30 18:01:00,
2013-10-30 11:10:00,60.6,26.4,29.71,North,-999,-999.0,-999.0,5,0.00,,,-99.99,0.0,Linux-Irox,2013-10-30 18:10:00,
2013-10-30 11:16:00,60.4,26.2,29.71,North,-999,-999.0,-999.0,5,0.00,,,-99.99,0.0,Linux-Irox,2013-10-30 18:16:00,
2013-10-30 11:20:00,60.3,26.1,29.71,North,-999,-999.0,-999.0,5,0.00,,,-99.99,0.0,Linux-Irox,2013-10-30 18:20:00,
2013-10-30 11:30:00,59.7,25.5,29.71,North,-999,-999.0,-999.0,5,0.00,,,-99.99,0.0,Linux-Irox,2013-10-30 18:30:00,
2013-10-30 11:31:00,59.7,25.5,29.71,North,-999,-999.0,-999.0,5,0.00,,,-99.99,0.0,Linux-Irox,2013-10-30 18:31:00,
2013-10-30 11:40:00,60.3,26.1,29.71,North,-999,-999.0,-999.0,5,0.00,,,-99.99,0.0,Linux-Irox,2013-10-30 18:40:00,
2013-10-30 11:46:00,59.7,25.5,29.71,North,-999,-999.0,-999.0,5,0.00,,,-99.99,0.0,Linux-Irox,2013-10-30 18:46:00,
2013-10-30 11:50:00,59.0,24.8,29.71,North,-999,-999.0,-999.0,5,0.00,,,-99.99,0.0,Linux-Irox,2013-10-30 18:50:00,
2013-10-30 12:00:00,59.4,25.2,29.71,North,-999,-999.0,-999.0,5,0.00,,,-99.99,0.0,Linux-Irox,2013-10-30 19:00:00,
2013-10-30 12:01:00,59.4,25.2,29.71,North,-999,-999.0,-999.0,5,0.00,,,-99.99,0.0,Linux-Irox,2013-10-30 19:01:00,
2013-10-30 12:10:00,59.4,25.2,29.71,North,-999,-999.0,-999.0,5,0.00,,,-99.99,0.0,Linux-Irox,2013-10-30 19:10:00,
2013-10-30 12:16:00,60.3,26.1,29.70,North,-999,-999.0,-999.0,5,0.00,,,-99.99,0.0,Linux-Irox,2013-10-30 19:16:00,
2013-10-30 12:20:00,61.2,27.0,29.70,North,-999,-999.0,-999.0,5,0.00,,,-99.99,0.0,Linux-Irox,2013-10-30 19:20:00,
2013-10-30 12:30:00,61.9,27.7,29.70,North,-999,-999.0,-999.0,5,0.00,,,-99.99,0.0,Linux-Irox,2013-10-30 19:30:00,
2013-10-30 12:31:00,61.9,27.7,29.70,North,-999,-999.0,-999.0,5,0.00,,,-99.99,0.0,Linux-Irox,2013-10-30 19:31:00,
2013-10-30 12:40:00,62.6,28.4,29.70,North,-999,-999.0,-999.0,5,0.00,,,-99.99,0.0,Linux-Irox,2013-10-30 19:40:00,
2013-10-30 12:46:00,61.2,27.0,29.70,North,-999,-999.0,-999.0,5,0.00,,,-99.99,0.0,Linux-Irox,2013-10-30 19:46:00,
2013-10-30 12:50:00,60.3,26.1,29.70,North,-999,-999.0,-999.0,5,0.00,,,-99.99,0.0,Linux-Irox,2013-10-30 19:50:00,
2013-10-30 13:00:00,60.3,26.1,29.69,North,-999,-999.0,-999.0,5,0.00,,,-99.99,0.0,Linux-Irox,2013-10-30 20:00:00,
2013-10-30 13:01:00,60.3,26.1,29.69,North,-999,-999.0,-999.0,5,0.00,,,-99.99,0.0,Linux-Irox,2013-10-30 20:01:00,
2013-10-30 13:10:00,59.7,25.5,29.69,North,-999,-999.0,-999.0,5,0.00,,,-99.99,0.0,Linux-Irox,2013-10-30 20:10:00,
2013-10-30 13:16:00,58.8,24.6,29.69,North,-999,-999.0,-999.0,5,0.00,,,-99.99,0.0,Linux-Irox,2013-10-30 20:16:00,
2013-10-30 13:20:00,58.8,24.6,29.69,North,-999,-999.0,-999.0,5,0.00,,,-99.99,0.0,Linux-Irox,2013-10-30 20:20:00,
2013-10-30 13:30:00,61.3,27.1,29.69,North,-999,-999.0,-999.0,5,0.00,,,-99.99,0.0,Linux-Irox,2013-10-30 20:30:00,
2013-10-30 13:31:00,61.3,27.1,29.69,North,-999,-999.0,-999.0,5,0.00,,,-99.99,0.0,Linux-Irox,2013-10-30 20:31:00,
2013-10-30 13:40:00,61.3,27.1,29.67,North,-999,-999.0,-999.0,5,0.00,,,-99.99,0.0,Linux-Irox,2013-10-30 20:40:00,
2013-10-30 13:46:00,61.7,27.5,29.67,North,-999,-999.0,-999.0,5,0.00,,,-99.99,0.0,Linux-Irox,2013-10-30 20:46:00,
2013-10-30 13:50:00,62.1,27.9,29.67,North,-999,-999.0,-999.0,5,0.00,,,-99.99,0.0,Linux-Irox,2013-10-30 20:50:00,
2013-10-30 14:00:00,61.9,27.7,29.68,North,-999,-999.0,-999.0,5,0.00,,,-99.99,0.0,Linux-Irox,2013-10-30 21:00:00,
2013-10-30 14:01:00,61.9,27.7,29.68,North,-999,-999.0,-999.0,5,0.00,,,-99.99,0.0,Linux-Irox,2013-10-30 21:01:00,
2013-10-30 14:10:00,61.3,27.1,29.68,North,-999,-999.0,-999.0,5,0.00,,,-99.99,0.0,Linux-Irox,2013-10-30 21:10:00,
2013-10-30 14:16:00,61.9,27.7,29.67,North,-999,-999.0,-999.0,5,0.00,,,-99.99,0.0,Linux-Irox,2013-10-30 21:16:00,
2013-10-30 14:20:00,61.9,27.7,29.67,North,-999,-999.0,-999.0,5,0.00,,,-99.99,0.0,Linux-Irox,2013-10-30 21:20:00,
2013-10-30 14:30:00,61.5,27.3,29.67,North,-999,-999.0,-999.0,5,0.00,,,-99.99,0.0,Linux-Irox,2013-10-30 21:30:00,
2013-10-30 14:31:00,61.5,27.3,29.67,North,-999,-999.0,-999.0,5,0.00,,,-99.99,0.0,Linux-Irox,2013-10-30 21:31:00,
2013-10-30 14:40:00,63.3,29.1,29.67,North,-999,-999.0,-999.0,5,0.00,,,-99.99,0.0,Linux-Irox,2013-10-30 21:40:00,
2013-10-30 14:46:00,63.5,29.3,29.67,North,-999,-999.0,-999.0,5,0.00,,,-99.99,0.0,Linux-Irox,2013-10-30 21:46:00,
2013-10-30 14:50:00,63.3,29.1,29.67,North,-999,-999.0,-999.0,5,0.00,,,-99.99,0.0,Linux-Irox,2013-10-30 21:50:00,
2013-10-30 15:00:00,63.1,28.9,29.67,North,-999,-999.0,-999.0,5,0.00,,,-99.99,0.0,Linux-Irox,2013-10-30 22:00:00,
2013-10-30 15:01:00,63.1,28.9,29.67,North,-999,-999.0,-999.0,5,0.00,,,-99.99,0.0,Linux-Irox,2013-10-30 22:01:00,
2013-10-30 15:10:00,61.9,27.7,29.67,North,-999,-999.0,-999.0,5,0.00,,,-99.99,0.0,Linux-Irox,2013-10-30 22:10:00,
2013-10-30 15:16:00,62.4,28.2,29.64,North,-999,-999.0,-999.0,5,0.00,,,-99.99,0.0,Linux-Irox,2013-10-30 22:16:00,
2013-10-30 15:20:00,62.6,28.4,29.64,North,-999,-999.0,-999.0,5,0.00,,,-99.99,0.0,Linux-Irox,2013-10-30 22:20:00,
2013-10-30 15:30:00,62.1,27.9,29.64,North,-999,-999.0,-999.0,5,0.00,,,-99.99,0.0,Linux-Irox,2013-10-30 22:30:00,
2013-10-30 15:31:00,62.1,27.9,29.64,North,-999,-999.0,-999.0,5,0.00,,,-99.99,0.0,Linux-Irox,2013-10-30 22:31:00,
2013-10-30 15:40:00,61.7,27.5,29.62,North,-999,-999.0,-999.0,5,0.00,,,-99.99,0.0,Linux-Irox,2013-10-30 22:40:00,
2013-10-30 15:46:00,61.3,27.1,29.62,North,-999,-999.0,-999.0,5,0.00,,,-99.99,0.0,Linux-Irox,2013-10-30 22:46:00,
2013-10-30 15:50:00,61.2,27.0,29.62,North,-999,-999.0,-999.0,5,0.00,,,-99.99,0.0,Linux-Irox,2013-10-30 22:50:00,
2013-10-30 16:00:00,61.2,27.0,29.64,North,-999,-999.0,-999.0,5,0.00,,,-99.99,0.0,Linux-Irox,2013-10-30 23:00:00,
2013-10-30 16:01:00,61.2,27.0,29.64,North,-999,-999.0,-999.0,5,0.00,,,-99.99,0.0,Linux-Irox,2013-10-30 23:01:00,
2013-10-30 16:10:00,60.8,26.6,29.64,North,-999,-999.0,-999.0,5,0.00,,,-99.99,0.0,Linux-Irox,2013-10-30 23:10:00,
2013-10-30 16:16:00,60.8,26.6,29.65,North,-999,-999.0,-999.0,5,0.00,,,-99.99,0.0,Linux-Irox,2013-10-30 23:16:00,
2013-10-30 16:20:00,60.3,26.1,29.65,North,-999,-999.0,-999.0,5,0.00,,,-99.99,0.0,Linux-Irox,2013-10-30 23:20:00,
2013-10-30 16:30:00,59.9,25.7,29.65,North,-999,-999.0,-999.0,5,0.00,,,-99.99,0.0,Linux-Irox,2013-10-30 23:30:00,
2013-10-30 16:31:00,59.9,25.7,29.65,North,-999,-999.0,-999.0,5,0.00,,,-99.99,0.0,Linux-Irox,2013-10-30 23:31:00,
2013-10-30 16:40:00,59.5,25.3,29.65,North,-999,-999.0,-999.0,5,0.00,,,-99.99,0.0,Linux-Irox,2013-10-30 23:40:00,
2013-10-30 16:46:00,59.4,25.2,29.65,North,-999,-999.0,-999.0,5,0.00,,,-99.99,0.0,Linux-Irox,2013-10-30 23:46:00,
2013-10-30 16:50:00,59.2,25.0,29.65,North,-999,-999.0,-999.0,5,0.00,,,-99.99,0.0,Linux-Irox,2013-10-30 23:50:00,
2013-10-30 17:00:00,59.0,24.8,29.65,North,-999,-999.0,-999.0,5,0.00,,,-99.99,0.0,Linux-Irox,2013-10-31 00:00:00,
2013-10-30 17:01:00,59.0,24.8,29.65,North,-999,-999.0,-999.0,5,0.00,,,-99.99,0.0,Linux-Irox,2013-10-31 00:01:00,
2013-10-30 17:10:00,58.5,24.3,29.65,North,-999,-999.0,-999.0,5,0.00,,,-99.99,0.0,Linux-Irox,2013-10-31 00:10:00,
2013-10-30 17:16:00,58.3,24.1,29.65,North,-999,-999.0,-999.0,5,0.00,,,-99.99,0.0,Linux-Irox,2013-10-31 00:16:00,
2013-10-30 17:20:00,57.9,23.7,29.65,North,-999,-999.0,-999.0,5,0.00,,,-99.99,0.0,Linux-Irox,2013-10-31 00:20:00,
2013-10-30 17:30:00,57.0,22.8,29.65,North,-999,-999.0,-999.0,5,0.00,,,-99.99,0.0,Linux-Irox,2013-10-31 00:30:00,
2013-10-30 17:31:00,57.0,22.8,29.65,North,-999,-999.0,-999.0,5,0.00,,,-99.99,0.0,Linux-Irox,2013-10-31 00:31:00,
2013-10-30 17:40:00,56.3,22.1,29.65,North,-999,-999.0,-999.0,5,0.00,,,-99.99,0.0,Linux-Irox,2013-10-31 00:40:00,
2013-10-30 17:46:00,55.6,21.4,29.65,North,-999,-999.0,-999.0,5,0.00,,,-99.99,0.0,Linux-Irox,2013-10-31 00:46:00,
2013-10-30 17:50:00,55.2,21.0,29.65,North,-999,-999.0,-999.0,5,0.00,,,-99.99,0.0,Linux-Irox,2013-10-31 00:50:00,
2013-10-30 18:00:00,54.1,19.9,29.66,North,-999,-999.0,-999.0,5,0.00,,,-99.99,0.0,Linux-Irox,2013-10-31 01:00:00,
2013-10-30 18:01:00,54.1,19.9,29.66,North,-999,-999.0,-999.0,5,0.00,,,-99.99,0.0,Linux-Irox,2013-10-31 01:01:00,
2013-10-30 18:10:00,53.6,19.4,29.66,North,-999,-999.0,-999.0,5,0.00,,,-99.99,0.0,Linux-Irox,2013-10-31 01:10:00,
2013-10-30 18:16:00,52.9,18.7,29.67,North,-999,-999.0,-999.0,5,0.00,,,-99.99,0.0,Linux-Irox,2013-10-31 01:16:00,
2013-10-30 18:20:00,52.7,18.5,29.67,North,-999,-999.0,-999.0,5,0.00,,,-99.99,0.0,Linux-Irox,2013-10-31 01:20:00,
2013-10-30 18:30:00,52.5,18.3,29.67,North,-999,-999.0,-999.0,5,0.00,,,-99.99,0.0,Linux-Irox,2013-10-31 01:30:00,
2013-10-30 18:31:00,52.5,18.3,29.67,North,-999,-999.0,-999.0,5,0.00,,,-99.99,0.0,Linux-Irox,2013-10-31 01:31:00,
2013-10-30 18:40:00,51.8,17.6,29.67,North,-999,-999.0,-999.0,5,0.00,,,-99.99,0.0,Linux-Irox,2013-10-31 01:40:00,
2013-10-30 18:46:00,51.4,17.6,29.67,North,-999,-999.0,-999.0,6,0.00,,,-99.99,0.0,Linux-Irox,2013-10-31 01:46:00,
2013-10-30 18:50:00,51.3,17.4,29.67,North,-999,-999.0,-999.0,6,0.00,,,-99.99,0.0,Linux-Irox,2013-10-31 01:50:00,
2013-10-30 19:00:00,50.9,18.1,29.68,North,-999,-999.0,-999.0,9,0.00,,,-99.99,0.0,Linux-Irox,2013-10-31 02:00:00,
2013-10-30 19:01:00,50.9,18.1,29.68,North,-999,-999.0,-999.0,9,0.00,,,-99.99,0.0,Linux-Irox,2013-10-31 02:01:00,
2013-10-30 19:10:00,50.4,17.6,29.68,North,-999,-999.0,-999.0,9,0.00,,,-99.99,0.0,Linux-Irox,2013-10-31 02:10:00,
2013-10-30 19:16:00,50.2,17.4,29.68,North,-999,-999.0,-999.0,9,0.00,,,-99.99,0.0,Linux-Irox,2013-10-31 02:16:00,
2013-10-30 19:20:00,50.0,17.2,29.68,North,-999,-999.0,-999.0,9,0.00,,,-99.99,0.0,Linux-Irox,2013-10-31 02:20:00,
2013-10-30 19:30:00,49.6,17.2,29.68,North,-999,-999.0,-999.0,10,0.00,,,-99.99,0.0,Linux-Irox,2013-10-31 02:30:00,
2013-10-30 19:31:00,49.6,17.2,29.68,North,-999,-999.0,-999.0,10,0.00,,,-99.99,0.0,Linux-Irox,2013-10-31 02:31:00,
2013-10-30 19:40:00,49.3,16.9,29.68,North,-999,-999.0,-999.0,10,0.00,,,-99.99,0.0,Linux-Irox,2013-10-31 02:40:00,
2013-10-30 19:46:00,49.1,16.7,29.68,North,-999,-999.0,-999.0,10,0.00,,,-99.99,0.0,Linux-Irox,2013-10-31 02:46:00,
2013-10-30 19:50:00,49.1,16.7,29.68,North,-999,-999.0,-999.0,10,0.00,,,-99.99,0.0,Linux-Irox,2013-10-31 02:50:00,
2013-10-30 20:00:00,48.7,16.3,29.69,North,-999,-999.0,-999.0,10,0.00,,,-99.99,0.0,Linux-Irox,2013-10-31 03:00:00,
2013-10-30 20:01:00,48.7,16.3,29.69,North,-999,-999.0,-999.0,10,0.00,,,-99.99,0.0,Linux-Irox,2013-10-31 03:01:00,
2013-10-30 20:10:00,48.4,16.0,29.69,North,-999,-999.0,-999.0,10,0.00,,,-99.99,0.0,Linux-Irox,2013-10-31 03:10:00,
2013-10-30 20:20:00,48.2,15.8,29.69,North,-999,-999.0,-999.0,10,0.00,,,-99.99,0.0,Linux-Irox,2013-10-31 03:20:00,
2013-10-30 20:30:00,47.8,15.4,29.69,North,-999,-999.0,-999.0,10,0.00,,,-99.99,0.0,Linux-Irox,2013-10-31 03:30:00,
2013-10-30 20:40:00,47.5,15.1,29.67,North,-999,-999.0,-999.0,10,0.00,,,-99.99,0.0,Linux-Irox,2013-10-31 03:40:00,
2013-10-30 20:50:00,47.5,15.8,29.67,North,-999,-999.0,-999.0,12,0.00,,,-99.99,0.0,Linux-Irox,2013-10-31 03:50:00,
2013-10-30 21:00:00,47.3,15.6,29.67,North,-999,-999.0,-999.0,12,0.00,,,-99.99,0.0,Linux-Irox,2013-10-31 04:00:00,
2013-10-30 21:10:00,47.3,15.6,29.67,North,-999,-999.0,-999.0,12,0.00,,,-99.99,0.0,Linux-Irox,2013-10-31 04:10:00,
2013-10-30 21:20:00,47.1,15.4,29.67,North,-999,-999.0,-999.0,12,0.00,,,-99.99,0.0,Linux-Irox,2013-10-31 04:20:00,
2013-10-30 21:30:00,46.9,15.3,29.67,North,-999,-999.0,-999.0,12,0.00,,,-99.99,0.0,Linux-Irox,2013-10-31 04:30:00,
2013-10-30 21:40:00,47.5,16.5,29.67,North,-999,-999.0,-999.0,14,0.00,,,-99.99,0.0,Linux-Irox,2013-10-31 04:40:00,
2013-10-30 21:50:00,46.9,16.0,29.67,North,-999,-999.0,-999.0,14,0.00,,,-99.99,0.0,Linux-Irox,2013-10-31 04:50:00,
2013-10-30 22:00:00,46.4,15.4,29.67,North,-999,-999.0,-999.0,14,0.00,,,-99.99,0.0,Linux-Irox,2013-10-31 05:00:00,
2013-10-30 22:10:00,46.6,15.6,29.67,North,-999,-999.0,-999.0,14,0.00,,,-99.99,0.0,Linux-Irox,2013-10-31 05:10:00,
2013-10-30 22:20:00,46.6,16.3,29.67,North,-999,-999.0,-999.0,16,0.00,,,-99.99,0.0,Linux-Irox,2013-10-31 05:20:00,
2013-10-30 22:30:00,46.4,16.2,29.67,North,-999,-999.0,-999.0,16,0.00,,,-99.99,0.0,Linux-Irox,2013-10-31 05:30:00,
2013-10-30 22:40:00,46.2,17.8,29.68,North,-999,-999.0,-999.0,21,0.00,,,-99.99,0.0,Linux-Irox,2013-10-31 05:40:00,
2013-10-30 22:50:00,46.4,18.0,29.68,North,-999,-999.0,-999.0,21,0.00,,,-99.99,0.0,Linux-Irox,2013-10-31 05:50:00,
2013-10-30 23:00:00,45.9,18.1,29.67,North,-999,-999.0,-999.0,23,0.00,,,-99.99,0.0,Linux-Irox,2013-10-31 06:00:00,
2013-10-30 23:10:00,45.5,17.4,29.67,North,-999,-999.0,-999.0,22,0.00,,,-99.99,0.0,Linux-Irox,2013-10-31 06:10:00,
2013-10-30 23:20:00,45.1,17.1,29.67,North,-999,-999.0,-999.0,22,0.00,,,-99.99,0.0,Linux-Irox,2013-10-31 06:20:00,
2013-10-30 23:30:00,44.8,16.7,29.67,North,-999,-999.0,-999.0,22,0.00,,,-99.99,0.0,Linux-Irox,2013-10-31 06:30:00,
2013-10-30 23:40:00,45.0,18.7,29.68,North,-999,-999.0,-999.0,27,0.00,,,-99.99,0.0,Linux-Irox,2013-10-31 06:40:00,
2013-10-30 23:50:00,44.6,16.9,29.68,North,-999,-999.0,-999.0,23,0.00,,,-99.99,0.0,Linux-Irox,2013-10-31 06:50:00,